aviador You're here:

KDVP Decoded Metar

SLAYTON in MN, USA
Report Time2017-06-29 12:27:00
UTC Time2017-06-29 12:32:20
Flight Rules vfr VFR
WindCalm
Visibility9999 m
Phenomena:N/A
Clouds:N/A
Expected CloudBase > 400 ft AGL from Temp-Dew spread
CeilingNone
Temp16°C (ISA +4)
Dew Point15°C (94% RH)
QNH1009 hPa
Density Alt2,490 ft
Elevation1,624 ft
Report Wrong Elevation
Raw Report
METAR KDVP 291227Z AUTO 00000KT 10SM CLR 16/15 A2981 RMK AO2 T01570148=

Extra information for KDVP:More info

Metar Taf Metar & Taf Last 4 Metars F.Rules Stats Wind Profile Meteogram Temp Stats Airport Information Weather charts Add Link Nearby VenuesMetar ALERT Operation Metar Decoded Social comments

AIRNAV info for KDVP